sensor_id;sensor_type;location;lat;lon;timestamp;P1;durP1;ratioP1;P2;durP2;ratioP2
13425;SDS011;6785;57.918;12.530;2022-08-25T00:00:59;6.63;;;3.10;;
13425;SDS011;6785;57.918;12.530;2022-08-25T00:03:26;5.10;;;2.80;;
13425;SDS011;6785;57.918;12.530;2022-08-25T00:05:53;4.17;;;2.73;;
13425;SDS011;6785;57.918;12.530;2022-08-25T00:08:20;7.90;;;3.03;;
13425;SDS011;6785;57.918;12.530;2022-08-25T00:10:46;7.13;;;2.67;;
13425;SDS011;6785;57.918;12.530;2022-08-25T00:13:15;3.73;;;2.93;;
13425;SDS011;6785;57.918;12.530;2022-08-25T00:15:42;6.30;;;3.30;;
13425;SDS011;6785;57.918;12.530;2022-08-25T00:18:10;5.27;;;2.80;;
13425;SDS011;6785;57.918;12.530;2022-08-25T00:20:37;9.33;;;3.13;;
13425;SDS011;6785;57.918;12.530;2022-08-25T00:23:04;8.63;;;3.27;;
13425;SDS011;6785;57.918;12.530;2022-08-25T00:25:31;3.47;;;2.83;;
13425;SDS011;6785;57.918;12.530;2022-08-25T00:27:58;5.07;;;2.90;;
13425;SDS011;6785;57.918;12.530;2022-08-25T00:30:26;9.30;;;3.20;;
13425;SDS011;6785;57.918;12.530;2022-08-25T00:32:53;10.10;;;3.30;;
13425;SDS011;6785;57.918;12.530;2022-08-25T00:35:20;3.77;;;3.20;;
13425;SDS011;6785;57.918;12.530;2022-08-25T00:37:47;7.10;;;2.97;;
13425;SDS011;6785;57.918;12.530;2022-08-25T00:40:14;5.33;;;3.10;;
13425;SDS011;6785;57.918;12.530;2022-08-25T00:42:40;7.43;;;3.63;;
13425;SDS011;6785;57.918;12.530;2022-08-25T00:45:07;5.27;;;3.10;;
13425;SDS011;6785;57.918;12.530;2022-08-25T00:47:36;4.70;;;3.60;;
13425;SDS011;6785;57.918;12.530;2022-08-25T00:50:06;4.97;;;3.00;;
13425;SDS011;6785;57.918;12.530;2022-08-25T00:52:35;10.47;;;3.27;;
13425;SDS011;6785;57.918;12.530;2022-08-25T00:55:06;5.23;;;3.37;;
13425;SDS011;6785;57.918;12.530;2022-08-25T00:57:37;9.83;;;3.57;;
13425;SDS011;6785;57.918;12.530;2022-08-25T01:00:07;6.40;;;3.27;;
13425;SDS011;6785;57.918;12.530;2022-08-25T01:02:38;7.37;;;3.20;;
13425;SDS011;6785;57.918;12.530;2022-08-25T01:05:05;5.00;;;3.03;;
13425;SDS011;6785;57.918;12.530;2022-08-25T01:07:33;6.77;;;3.20;;
13425;SDS011;6785;57.918;12.530;2022-08-25T01:10:03;5.80;;;3.37;;
13425;SDS011;6785;57.918;12.530;2022-08-25T01:12:32;3.70;;;3.33;;
13425;SDS011;6785;57.918;12.530;2022-08-25T01:15:00;10.33;;;3.53;;
13425;SDS011;6785;57.918;12.530;2022-08-25T01:17:32;4.57;;;3.40;;
13425;SDS011;6785;57.918;12.530;2022-08-25T01:20:02;4.87;;;3.20;;
13425;SDS011;6785;57.918;12.530;2022-08-25T01:22:31;8.07;;;3.43;;
13425;SDS011;6785;57.918;12.530;2022-08-25T01:24:58;3.87;;;3.43;;
13425;SDS011;6785;57.918;12.530;2022-08-25T01:27:30;5.37;;;3.00;;
13425;SDS011;6785;57.918;12.530;2022-08-25T01:29:57;7.90;;;3.40;;
13425;SDS011;6785;57.918;12.530;2022-08-25T01:32:24;6.83;;;3.63;;
13425;SDS011;6785;57.918;12.530;2022-08-25T01:34:50;4.13;;;3.50;;
13425;SDS011;6785;57.918;12.530;2022-08-25T01:37:17;5.03;;;3.30;;
13425;SDS011;6785;57.918;12.530;2022-08-25T01:39:46;4.93;;;3.50;;
13425;SDS011;6785;57.918;12.530;2022-08-25T01:42:18;8.10;;;3.30;;
13425;SDS011;6785;57.918;12.530;2022-08-25T01:44:53;4.03;;;3.40;;
13425;SDS011;6785;57.918;12.530;2022-08-25T01:47:21;4.97;;;3.23;;
13425;SDS011;6785;57.918;12.530;2022-08-25T01:49:48;4.03;;;3.63;;
13425;SDS011;6785;57.918;12.530;2022-08-25T01:52:16;4.93;;;2.87;;
13425;SDS011;6785;57.918;12.530;2022-08-25T01:54:48;5.27;;;3.60;;
13425;SDS011;6785;57.918;12.530;2022-08-25T01:57:15;5.73;;;3.60;;
13425;SDS011;6785;57.918;12.530;2022-08-25T01:59:43;4.13;;;3.60;;
13425;SDS011;6785;57.918;12.530;2022-08-25T02:02:10;5.83;;;3.60;;
13425;SDS011;6785;57.918;12.530;2022-08-25T02:04:37;4.50;;;3.53;;
13425;SDS011;6785;57.918;12.530;2022-08-25T02:07:05;5.80;;;3.40;;
13425;SDS011;6785;57.918;12.530;2022-08-25T02:09:33;5.77;;;3.70;;
13425;SDS011;6785;57.918;12.530;2022-08-25T02:12:04;5.10;;;3.10;;
13425;SDS011;6785;57.918;12.530;2022-08-25T02:14:31;5.17;;;3.43;;
13425;SDS011;6785;57.918;12.530;2022-08-25T02:16:59;5.63;;;4.17;;
13425;SDS011;6785;57.918;12.530;2022-08-25T02:19:26;4.73;;;3.20;;
13425;SDS011;6785;57.918;12.530;2022-08-25T02:21:55;4.67;;;3.80;;
13425;SDS011;6785;57.918;12.530;2022-08-25T02:24:21;7.70;;;3.87;;
13425;SDS011;6785;57.918;12.530;2022-08-25T02:26:48;5.93;;;3.67;;
13425;SDS011;6785;57.918;12.530;2022-08-25T02:29:17;5.37;;;3.57;;
13425;SDS011;6785;57.918;12.530;2022-08-25T02:31:44;5.90;;;3.67;;
13425;SDS011;6785;57.918;12.530;2022-08-25T02:34:11;5.07;;;3.40;;
13425;SDS011;6785;57.918;12.530;2022-08-25T02:36:39;4.33;;;3.20;;
13425;SDS011;6785;57.918;12.530;2022-08-25T02:39:07;4.53;;;3.33;;
13425;SDS011;6785;57.918;12.530;2022-08-25T02:41:35;5.23;;;3.27;;
13425;SDS011;6785;57.918;12.530;2022-08-25T02:44:03;4.33;;;3.10;;
13425;SDS011;6785;57.918;12.530;2022-08-25T02:46:32;5.57;;;3.60;;
13425;SDS011;6785;57.918;12.530;2022-08-25T02:48:59;3.97;;;3.37;;
13425;SDS011;6785;57.918;12.530;2022-08-25T02:51:26;5.83;;;3.80;;
13425;SDS011;6785;57.918;12.530;2022-08-25T02:53:54;6.87;;;3.90;;
13425;SDS011;6785;57.918;12.530;2022-08-25T02:56:21;6.27;;;3.50;;
13425;SDS011;6785;57.918;12.530;2022-08-25T02:58:49;4.00;;;3.70;;
13425;SDS011;6785;57.918;12.530;2022-08-25T03:01:17;7.30;;;3.47;;
13425;SDS011;6785;57.918;12.530;2022-08-25T03:03:45;5.63;;;3.60;;
13425;SDS011;6785;57.918;12.530;2022-08-25T03:06:14;6.67;;;3.53;;
13425;SDS011;6785;57.918;12.530;2022-08-25T03:08:43;3.73;;;3.33;;
13425;SDS011;6785;57.918;12.530;2022-08-25T03:11:11;4.00;;;2.93;;
13425;SDS011;6785;57.918;12.530;2022-08-25T03:13:38;5.23;;;3.30;;
13425;SDS011;6785;57.918;12.530;2022-08-25T03:16:05;10.17;;;4.03;;
13425;SDS011;6785;57.918;12.530;2022-08-25T03:18:34;5.73;;;3.57;;
13425;SDS011;6785;57.918;12.530;2022-08-25T03:21:03;8.27;;;3.80;;
13425;SDS011;6785;57.918;12.530;2022-08-25T03:23:30;4.30;;;3.80;;
13425;SDS011;6785;57.918;12.530;2022-08-25T03:25:57;5.23;;;4.10;;
13425;SDS011;6785;57.918;12.530;2022-08-25T03:28:41;6.97;;;4.33;;
13425;SDS011;6785;57.918;12.530;2022-08-25T03:31:08;5.10;;;4.00;;
13425;SDS011;6785;57.918;12.530;2022-08-25T03:33:35;4.97;;;4.10;;
13425;SDS011;6785;57.918;12.530;2022-08-25T03:36:04;5.90;;;3.70;;
13425;SDS011;6785;57.918;12.530;2022-08-25T03:38:32;7.50;;;4.43;;
13425;SDS011;6785;57.918;12.530;2022-08-25T03:41:00;8.00;;;4.37;;
13425;SDS011;6785;57.918;12.530;2022-08-25T03:43:27;6.57;;;4.37;;
13425;SDS011;6785;57.918;12.530;2022-08-25T03:45:54;5.80;;;4.27;;
13425;SDS011;6785;57.918;12.530;2022-08-25T03:48:21;6.40;;;4.37;;
13425;SDS011;6785;57.918;12.530;2022-08-25T03:50:48;7.37;;;4.10;;
13425;SDS011;6785;57.918;12.530;2022-08-25T03:53:20;6.17;;;3.90;;
13425;SDS011;6785;57.918;12.530;2022-08-25T03:58:30;4.40;;;3.40;;
13425;SDS011;6785;57.918;12.530;2022-08-25T04:00:56;5.57;;;4.00;;
13425;SDS011;6785;57.918;12.530;2022-08-25T04:03:24;5.30;;;4.13;;
13425;SDS011;6785;57.918;12.530;2022-08-25T04:05:51;6.90;;;4.67;;
13425;SDS011;6785;57.918;12.530;2022-08-25T04:11:37;6.00;;;4.07;;
13425;SDS011;6785;57.918;12.530;2022-08-25T04:14:05;9.03;;;4.17;;
13425;SDS011;6785;57.918;12.530;2022-08-25T04:16:32;9.30;;;4.60;;
13425;SDS011;6785;57.918;12.530;2022-08-25T04:19:02;5.77;;;4.50;;
13425;SDS011;6785;57.918;12.530;2022-08-25T04:21:31;6.30;;;4.20;;
13425;SDS011;6785;57.918;12.530;2022-08-25T04:23:59;4.77;;;3.90;;
13425;SDS011;6785;57.918;12.530;2022-08-25T04:26:28;8.30;;;4.47;;
13425;SDS011;6785;57.918;12.530;2022-08-25T04:28:58;4.83;;;3.90;;
13425;SDS011;6785;57.918;12.530;2022-08-25T04:31:27;6.50;;;3.93;;
13425;SDS011;6785;57.918;12.530;2022-08-25T04:33:56;6.63;;;3.60;;
13425;SDS011;6785;57.918;12.530;2022-08-25T04:42:33;5.57;;;4.20;;
13425;SDS011;6785;57.918;12.530;2022-08-25T04:45:02;6.17;;;3.67;;
13425;SDS011;6785;57.918;12.530;2022-08-25T04:47:29;5.43;;;3.30;;
13425;SDS011;6785;57.918;12.530;2022-08-25T04:49:56;4.37;;;3.30;;
13425;SDS011;6785;57.918;12.530;2022-08-25T04:52:23;5.17;;;3.30;;
13425;SDS011;6785;57.918;12.530;2022-08-25T04:54:50;4.43;;;4.03;;
13425;SDS011;6785;57.918;12.530;2022-08-25T04:57:17;4.33;;;3.90;;
13425;SDS011;6785;57.918;12.530;2022-08-25T04:59:43;4.20;;;3.60;;
13425;SDS011;6785;57.918;12.530;2022-08-25T05:02:12;5.97;;;3.77;;
13425;SDS011;6785;57.918;12.530;2022-08-25T05:04:39;4.10;;;3.33;;
13425;SDS011;6785;57.918;12.530;2022-08-25T05:07:06;5.10;;;3.50;;
13425;SDS011;6785;57.918;12.530;2022-08-25T05:09:33;5.97;;;3.73;;
13425;SDS011;6785;57.918;12.530;2022-08-25T05:12:02;5.63;;;3.37;;
13425;SDS011;6785;57.918;12.530;2022-08-25T05:14:30;4.27;;;3.53;;
13425;SDS011;6785;57.918;12.530;2022-08-25T05:16:57;5.77;;;3.63;;
13425;SDS011;6785;57.918;12.530;2022-08-25T05:22:14;6.10;;;3.60;;
13425;SDS011;6785;57.918;12.530;2022-08-25T05:24:41;4.27;;;3.30;;
13425;SDS011;6785;57.918;12.530;2022-08-25T05:27:08;4.67;;;3.10;;
13425;SDS011;6785;57.918;12.530;2022-08-25T05:29:35;3.43;;;3.13;;
13425;SDS011;6785;57.918;12.530;2022-08-25T05:32:02;8.90;;;3.60;;
13425;SDS011;6785;57.918;12.530;2022-08-25T05:34:29;3.30;;;3.00;;
13425;SDS011;6785;57.918;12.530;2022-08-25T05:36:57;4.60;;;3.20;;
13425;SDS011;6785;57.918;12.530;2022-08-25T05:39:36;4.80;;;3.13;;
13425;SDS011;6785;57.918;12.530;2022-08-25T05:42:03;4.83;;;2.90;;
13425;SDS011;6785;57.918;12.530;2022-08-25T05:44:30;3.33;;;3.00;;
13425;SDS011;6785;57.918;12.530;2022-08-25T05:46:57;3.37;;;2.97;;
13425;SDS011;6785;57.918;12.530;2022-08-25T05:49:24;3.43;;;3.13;;
13425;SDS011;6785;57.918;12.530;2022-08-25T05:55:13;5.13;;;3.10;;
13425;SDS011;6785;57.918;12.530;2022-08-25T05:57:40;3.70;;;2.90;;
13425;SDS011;6785;57.918;12.530;2022-08-25T06:00:08;3.83;;;2.70;;
13425;SDS011;6785;57.918;12.530;2022-08-25T06:02:39;3.50;;;2.87;;
13425;SDS011;6785;57.918;12.530;2022-08-25T06:05:05;3.30;;;2.60;;
13425;SDS011;6785;57.918;12.530;2022-08-25T06:07:33;2.50;;;2.30;;
13425;SDS011;6785;57.918;12.530;2022-08-25T06:10:02;5.90;;;3.10;;
13425;SDS011;6785;57.918;12.530;2022-08-25T06:12:32;4.57;;;2.70;;
13425;SDS011;6785;57.918;12.530;2022-08-25T06:18:11;3.43;;;2.67;;
13425;SDS011;6785;57.918;12.530;2022-08-25T06:20:48;4.23;;;2.50;;
13425;SDS011;6785;57.918;12.530;2022-08-25T06:23:14;3.10;;;2.57;;
13425;SDS011;6785;57.918;12.530;2022-08-25T06:25:47;3.47;;;2.73;;
13425;SDS011;6785;57.918;12.530;2022-08-25T06:28:16;2.97;;;2.67;;
13425;SDS011;6785;57.918;12.530;2022-08-25T06:30:56;4.73;;;2.63;;
13425;SDS011;6785;57.918;12.530;2022-08-25T06:33:26;3.23;;;2.63;;
13425;SDS011;6785;57.918;12.530;2022-08-25T06:35:56;3.90;;;2.77;;
13425;SDS011;6785;57.918;12.530;2022-08-25T06:38:23;4.70;;;2.33;;
13425;SDS011;6785;57.918;12.530;2022-08-25T06:40:51;3.70;;;2.60;;
13425;SDS011;6785;57.918;12.530;2022-08-25T06:43:19;6.50;;;2.93;;
13425;SDS011;6785;57.918;12.530;2022-08-25T06:45:47;4.53;;;2.80;;
13425;SDS011;6785;57.918;12.530;2022-08-25T06:48:14;12.23;;;2.73;;
13425;SDS011;6785;57.918;12.530;2022-08-25T06:50:44;4.87;;;2.50;;
13425;SDS011;6785;57.918;12.530;2022-08-25T06:53:22;3.17;;;2.60;;
13425;SDS011;6785;57.918;12.530;2022-08-25T06:55:54;4.67;;;2.70;;
13425;SDS011;6785;57.918;12.530;2022-08-25T06:58:23;5.87;;;2.57;;
13425;SDS011;6785;57.918;12.530;2022-08-25T07:00:50;3.57;;;2.33;;
13425;SDS011;6785;57.918;12.530;2022-08-25T07:03:17;5.13;;;2.53;;
13425;SDS011;6785;57.918;12.530;2022-08-25T07:05:49;4.30;;;2.30;;
13425;SDS011;6785;57.918;12.530;2022-08-25T07:08:17;6.33;;;2.60;;
13425;SDS011;6785;57.918;12.530;2022-08-25T07:10:44;7.13;;;2.83;;
13425;SDS011;6785;57.918;12.530;2022-08-25T07:13:12;5.53;;;2.37;;
13425;SDS011;6785;57.918;12.530;2022-08-25T07:15:40;6.13;;;2.20;;
13425;SDS011;6785;57.918;12.530;2022-08-25T07:18:09;3.57;;;2.30;;
13425;SDS011;6785;57.918;12.530;2022-08-25T07:20:36;6.40;;;2.47;;
13425;SDS011;6785;57.918;12.530;2022-08-25T07:23:04;5.30;;;2.23;;
13425;SDS011;6785;57.918;12.530;2022-08-25T07:25:32;3.70;;;2.07;;
13425;SDS011;6785;57.918;12.530;2022-08-25T07:27:59;3.77;;;2.23;;
13425;SDS011;6785;57.918;12.530;2022-08-25T07:30:27;3.40;;;2.20;;
13425;SDS011;6785;57.918;12.530;2022-08-25T07:32:55;7.50;;;2.50;;
13425;SDS011;6785;57.918;12.530;2022-08-25T07:35:22;4.60;;;2.13;;
13425;SDS011;6785;57.918;12.530;2022-08-25T07:37:50;5.27;;;2.20;;
13425;SDS011;6785;57.918;12.530;2022-08-25T07:40:20;4.07;;;2.10;;
13425;SDS011;6785;57.918;12.530;2022-08-25T07:42:49;2.47;;;1.92;;
13425;SDS011;6785;57.918;12.530;2022-08-25T07:45:18;3.13;;;1.80;;
13425;SDS011;6785;57.918;12.530;2022-08-25T07:47:49;2.42;;;1.80;;
13425;SDS011;6785;57.918;12.530;2022-08-25T07:50:19;1.67;;;1.50;;
13425;SDS011;6785;57.918;12.530;2022-08-25T07:52:46;3.63;;;2.00;;
13425;SDS011;6785;57.918;12.530;2022-08-25T07:55:13;4.05;;;1.90;;
13425;SDS011;6785;57.918;12.530;2022-08-25T07:57:41;1.98;;;1.80;;
13425;SDS011;6785;57.918;12.530;2022-08-25T08:00:08;3.00;;;2.15;;
13425;SDS011;6785;57.918;12.530;2022-08-25T08:02:37;2.10;;;1.90;;
13425;SDS011;6785;57.918;12.530;2022-08-25T08:05:05;3.05;;;2.05;;
13425;SDS011;6785;57.918;12.530;2022-08-25T08:07:34;4.78;;;1.83;;
13425;SDS011;6785;57.918;12.530;2022-08-25T08:10:01;2.38;;;1.88;;
13425;SDS011;6785;57.918;12.530;2022-08-25T08:12:36;5.63;;;1.88;;
13425;SDS011;6785;57.918;12.530;2022-08-25T08:15:04;3.17;;;2.08;;
13425;SDS011;6785;57.918;12.530;2022-08-25T08:17:31;4.45;;;2.10;;
13425;SDS011;6785;57.918;12.530;2022-08-25T08:19:58;3.20;;;2.10;;
13425;SDS011;6785;57.918;12.530;2022-08-25T08:22:27;2.70;;;1.80;;
13425;SDS011;6785;57.918;12.530;2022-08-25T08:24:55;4.70;;;2.30;;
13425;SDS011;6785;57.918;12.530;2022-08-25T08:27:22;6.53;;;2.13;;
13425;SDS011;6785;57.918;12.530;2022-08-25T08:29:49;2.55;;;1.85;;
13425;SDS011;6785;57.918;12.530;2022-08-25T08:32:17;2.42;;;1.83;;
13425;SDS011;6785;57.918;12.530;2022-08-25T08:34:45;2.30;;;1.92;;
13425;SDS011;6785;57.918;12.530;2022-08-25T08:37:12;3.90;;;2.05;;
13425;SDS011;6785;57.918;12.530;2022-08-25T08:39:39;2.70;;;1.90;;
13425;SDS011;6785;57.918;12.530;2022-08-25T08:42:13;2.45;;;1.95;;
13425;SDS011;6785;57.918;12.530;2022-08-25T08:44:53;4.05;;;1.98;;
13425;SDS011;6785;57.918;12.530;2022-08-25T08:47:31;3.70;;;2.33;;
13425;SDS011;6785;57.918;12.530;2022-08-25T08:50:13;2.90;;;2.05;;
13425;SDS011;6785;57.918;12.530;2022-08-25T08:52:49;5.30;;;2.08;;
13425;SDS011;6785;57.918;12.530;2022-08-25T08:55:22;3.85;;;2.10;;
13425;SDS011;6785;57.918;12.530;2022-08-25T08:57:54;2.25;;;1.90;;
13425;SDS011;6785;57.918;12.530;2022-08-25T09:00:23;4.05;;;2.45;;
13425;SDS011;6785;57.918;12.530;2022-08-25T09:02:52;4.47;;;2.10;;
13425;SDS011;6785;57.918;12.530;2022-08-25T09:05:26;4.05;;;2.15;;
13425;SDS011;6785;57.918;12.530;2022-08-25T09:07:56;1.85;;;1.67;;
13425;SDS011;6785;57.918;12.530;2022-08-25T09:10:33;2.25;;;1.80;;
13425;SDS011;6785;57.918;12.530;2022-08-25T09:13:14;5.10;;;1.95;;
13425;SDS011;6785;57.918;12.530;2022-08-25T09:15:48;3.75;;;1.80;;
13425;SDS011;6785;57.918;12.530;2022-08-25T09:18:38;2.42;;;1.95;;
13425;SDS011;6785;57.918;12.530;2022-08-25T09:21:15;3.28;;;1.77;;
13425;SDS011;6785;57.918;12.530;2022-08-25T09:24:20;2.95;;;2.00;;
13425;SDS011;6785;57.918;12.530;2022-08-25T09:27:04;4.03;;;2.20;;
13425;SDS011;6785;57.918;12.530;2022-08-25T09:32:44;3.58;;;2.17;;
13425;SDS011;6785;57.918;12.530;2022-08-25T09:35:14;2.38;;;1.70;;
13425;SDS011;6785;57.918;12.530;2022-08-25T09:37:54;3.40;;;1.77;;
13425;SDS011;6785;57.918;12.530;2022-08-25T09:40:21;1.88;;;1.70;;
13425;SDS011;6785;57.918;12.530;2022-08-25T09:42:50;2.30;;;1.80;;
13425;SDS011;6785;57.918;12.530;2022-08-25T09:48:22;3.33;;;1.40;;
13425;SDS011;6785;57.918;12.530;2022-08-25T09:50:58;3.03;;;1.90;;
13425;SDS011;6785;57.918;12.530;2022-08-25T09:53:35;4.85;;;1.88;;
13425;SDS011;6785;57.918;12.530;2022-08-25T09:56:08;2.25;;;1.60;;
13425;SDS011;6785;57.918;12.530;2022-08-25T09:58:39;3.30;;;1.50;;
13425;SDS011;6785;57.918;12.530;2022-08-25T10:01:22;1.98;;;1.60;;
13425;SDS011;6785;57.918;12.530;2022-08-25T10:03:53;2.10;;;1.50;;
13425;SDS011;6785;57.918;12.530;2022-08-25T10:06:22;2.58;;;1.65;;
13425;SDS011;6785;57.918;12.530;2022-08-25T10:08:57;2.30;;;1.42;;
13425;SDS011;6785;57.918;12.530;2022-08-25T10:11:34;3.05;;;1.90;;
13425;SDS011;6785;57.918;12.530;2022-08-25T10:14:11;3.58;;;1.60;;
13425;SDS011;6785;57.918;12.530;2022-08-25T10:16:44;3.22;;;1.50;;
13425;SDS011;6785;57.918;12.530;2022-08-25T10:19:13;4.13;;;1.55;;
13425;SDS011;6785;57.918;12.530;2022-08-25T10:22:01;3.70;;;1.70;;
13425;SDS011;6785;57.918;12.530;2022-08-25T10:24:31;1.40;;;1.30;;
13425;SDS011;6785;57.918;12.530;2022-08-25T10:26:59;2.50;;;1.35;;
13425;SDS011;6785;57.918;12.530;2022-08-25T10:29:38;3.03;;;1.60;;
13425;SDS011;6785;57.918;12.530;2022-08-25T10:32:22;4.13;;;1.60;;
13425;SDS011;6785;57.918;12.530;2022-08-25T10:34:57;3.28;;;1.65;;
13425;SDS011;6785;57.918;12.530;2022-08-25T10:37:30;2.70;;;1.60;;
13425;SDS011;6785;57.918;12.530;2022-08-25T10:40:05;4.18;;;1.73;;
13425;SDS011;6785;57.918;12.530;2022-08-25T10:42:41;3.30;;;1.50;;
13425;SDS011;6785;57.918;12.530;2022-08-25T10:45:14;1.73;;;1.52;;
13425;SDS011;6785;57.918;12.530;2022-08-25T10:48:08;1.65;;;1.55;;
13425;SDS011;6785;57.918;12.530;2022-08-25T10:51:10;4.53;;;1.50;;
13425;SDS011;6785;57.918;12.530;2022-08-25T10:53:51;3.85;;;1.70;;
13425;SDS011;6785;57.918;12.530;2022-08-25T10:56:25;2.88;;;1.60;;
13425;SDS011;6785;57.918;12.530;2022-08-25T10:59:11;2.08;;;1.50;;
13425;SDS011;6785;57.918;12.530;2022-08-25T11:01:53;2.33;;;1.60;;
13425;SDS011;6785;57.918;12.530;2022-08-25T11:04:39;3.90;;;1.70;;
13425;SDS011;6785;57.918;12.530;2022-08-25T11:07:10;3.67;;;1.50;;
13425;SDS011;6785;57.918;12.530;2022-08-25T11:09:43;2.42;;;1.42;;
13425;SDS011;6785;57.918;12.530;2022-08-25T11:12:14;6.93;;;1.50;;
13425;SDS011;6785;57.918;12.530;2022-08-25T11:14:45;3.38;;;1.60;;
13425;SDS011;6785;57.918;12.530;2022-08-25T11:17:16;1.95;;;1.55;;
13425;SDS011;6785;57.918;12.530;2022-08-25T11:19:51;1.70;;;1.60;;
13425;SDS011;6785;57.918;12.530;2022-08-25T11:22:25;2.33;;;1.52;;
13425;SDS011;6785;57.918;12.530;2022-08-25T11:25:01;1.85;;;1.42;;
13425;SDS011;6785;57.918;12.530;2022-08-25T11:27:36;2.60;;;1.60;;
13425;SDS011;6785;57.918;12.530;2022-08-25T11:30:08;12.77;;;1.60;;
13425;SDS011;6785;57.918;12.530;2022-08-25T11:32:37;4.18;;;1.50;;
13425;SDS011;6785;57.918;12.530;2022-08-25T11:35:08;2.40;;;1.30;;
13425;SDS011;6785;57.918;12.530;2022-08-25T11:37:38;1.95;;;1.70;;
13425;SDS011;6785;57.918;12.530;2022-08-25T11:40:27;1.88;;;1.60;;
13425;SDS011;6785;57.918;12.530;2022-08-25T11:43:07;2.83;;;1.63;;
13425;SDS011;6785;57.918;12.530;2022-08-25T11:58:31;2.45;;;1.60;;
13425;SDS011;6785;57.918;12.530;2022-08-25T12:01:11;3.45;;;1.60;;
13425;SDS011;6785;57.918;12.530;2022-08-25T12:04:29;3.17;;;1.30;;
13425;SDS011;6785;57.918;12.530;2022-08-25T12:07:18;3.20;;;1.63;;
13425;SDS011;6785;57.918;12.530;2022-08-25T12:16:00;2.50;;;1.40;;
13425;SDS011;6785;57.918;12.530;2022-08-25T12:18:38;2.97;;;1.77;;
13425;SDS011;6785;57.918;12.530;2022-08-25T12:21:10;1.67;;;1.48;;
13425;SDS011;6785;57.918;12.530;2022-08-25T12:30:41;2.70;;;1.50;;
13425;SDS011;6785;57.918;12.530;2022-08-25T12:33:17;2.22;;;1.30;;
13425;SDS011;6785;57.918;12.530;2022-08-25T12:35:54;2.38;;;1.40;;
13425;SDS011;6785;57.918;12.530;2022-08-25T12:38:30;1.85;;;1.60;;
13425;SDS011;6785;57.918;12.530;2022-08-25T12:41:01;2.42;;;1.30;;
13425;SDS011;6785;57.918;12.530;2022-08-25T12:43:36;2.80;;;1.55;;
13425;SDS011;6785;57.918;12.530;2022-08-25T12:49:03;2.15;;;1.40;;
13425;SDS011;6785;57.918;12.530;2022-08-25T12:51:42;2.08;;;1.40;;
13425;SDS011;6785;57.918;12.530;2022-08-25T12:54:16;1.85;;;1.13;;
13425;SDS011;6785;57.918;12.530;2022-08-25T12:56:46;3.08;;;1.50;;
13425;SDS011;6785;57.918;12.530;2022-08-25T12:59:19;1.92;;;1.25;;
13425;SDS011;6785;57.918;12.530;2022-08-25T13:04:47;2.35;;;1.30;;
13425;SDS011;6785;57.918;12.530;2022-08-25T13:07:32;4.65;;;1.27;;
13425;SDS011;6785;57.918;12.530;2022-08-25T13:10:21;2.95;;;1.30;;
13425;SDS011;6785;57.918;12.530;2022-08-25T13:12:57;3.35;;;1.35;;
13425;SDS011;6785;57.918;12.530;2022-08-25T13:15:35;1.30;;;1.20;;
13425;SDS011;6785;57.918;12.530;2022-08-25T13:18:32;1.15;;;1.02;;
13425;SDS011;6785;57.918;12.530;2022-08-25T13:21:03;3.50;;;1.38;;
13425;SDS011;6785;57.918;12.530;2022-08-25T13:23:34;1.30;;;1.15;;
13425;SDS011;6785;57.918;12.530;2022-08-25T13:26:03;3.85;;;1.33;;
13425;SDS011;6785;57.918;12.530;2022-08-25T13:28:31;1.23;;;1.13;;
13425;SDS011;6785;57.918;12.530;2022-08-25T13:33:25;1.58;;;1.40;;
13425;SDS011;6785;57.918;12.530;2022-08-25T13:35:53;1.73;;;1.48;;
13425;SDS011;6785;57.918;12.530;2022-08-25T13:38:37;1.95;;;1.55;;
13425;SDS011;6785;57.918;12.530;2022-08-25T13:41:04;1.88;;;1.45;;
13425;SDS011;6785;57.918;12.530;2022-08-25T13:43:32;2.47;;;1.50;;
13425;SDS011;6785;57.918;12.530;2022-08-25T13:46:00;1.75;;;1.50;;
13425;SDS011;6785;57.918;12.530;2022-08-25T13:48:32;1.27;;;1.13;;
13425;SDS011;6785;57.918;12.530;2022-08-25T13:51:09;2.08;;;1.38;;
13425;SDS011;6785;57.918;12.530;2022-08-25T13:53:52;2.83;;;1.48;;
13425;SDS011;6785;57.918;12.530;2022-08-25T13:56:22;1.73;;;1.20;;
13425;SDS011;6785;57.918;12.530;2022-08-25T13:58:51;1.80;;;1.30;;
13425;SDS011;6785;57.918;12.530;2022-08-25T14:01:20;1.38;;;1.27;;
13425;SDS011;6785;57.918;12.530;2022-08-25T14:03:49;4.43;;;1.30;;
13425;SDS011;6785;57.918;12.530;2022-08-25T14:06:18;1.63;;;1.23;;
13425;SDS011;6785;57.918;12.530;2022-08-25T14:08:47;1.63;;;1.23;;
13425;SDS011;6785;57.918;12.530;2022-08-25T14:11:31;3.63;;;1.50;;
13425;SDS011;6785;57.918;12.530;2022-08-25T14:14:00;1.75;;;1.20;;
13425;SDS011;6785;57.918;12.530;2022-08-25T14:18:59;3.05;;;1.40;;
13425;SDS011;6785;57.918;12.530;2022-08-25T14:21:29;2.15;;;1.35;;
13425;SDS011;6785;57.918;12.530;2022-08-25T14:23:58;2.83;;;1.50;;
13425;SDS011;6785;57.918;12.530;2022-08-25T14:26:25;3.70;;;1.38;;
13425;SDS011;6785;57.918;12.530;2022-08-25T14:28:54;3.55;;;1.40;;
13425;SDS011;6785;57.918;12.530;2022-08-25T14:31:23;3.70;;;2.15;;
13425;SDS011;6785;57.918;12.530;2022-08-25T14:33:53;2.22;;;1.40;;
13425;SDS011;6785;57.918;12.530;2022-08-25T14:36:23;2.05;;;1.35;;
13425;SDS011;6785;57.918;12.530;2022-08-25T14:38:50;1.60;;;1.40;;
13425;SDS011;6785;57.918;12.530;2022-08-25T14:41:30;2.72;;;1.30;;
13425;SDS011;6785;57.918;12.530;2022-08-25T14:44:00;1.50;;;1.20;;
13425;SDS011;6785;57.918;12.530;2022-08-25T14:46:29;1.60;;;1.50;;
13425;SDS011;6785;57.918;12.530;2022-08-25T14:48:59;2.47;;;1.45;;
13425;SDS011;6785;57.918;12.530;2022-08-25T14:51:28;1.83;;;1.50;;
13425;SDS011;6785;57.918;12.530;2022-08-25T14:53:57;2.70;;;1.50;;
13425;SDS011;6785;57.918;12.530;2022-08-25T14:56:26;2.25;;;1.30;;
13425;SDS011;6785;57.918;12.530;2022-08-25T14:58:54;3.15;;;1.42;;
13425;SDS011;6785;57.918;12.530;2022-08-25T15:01:22;2.28;;;1.25;;
13425;SDS011;6785;57.918;12.530;2022-08-25T15:03:51;2.60;;;1.50;;
13425;SDS011;6785;57.918;12.530;2022-08-25T15:06:21;2.65;;;1.50;;
13425;SDS011;6785;57.918;12.530;2022-08-25T15:08:48;1.85;;;1.30;;
13425;SDS011;6785;57.918;12.530;2022-08-25T15:11:33;1.80;;;1.48;;
13425;SDS011;6785;57.918;12.530;2022-08-25T15:14:00;2.10;;;1.30;;
13425;SDS011;6785;57.918;12.530;2022-08-25T15:16:30;1.50;;;1.40;;
13425;SDS011;6785;57.918;12.530;2022-08-25T15:18:59;4.65;;;1.38;;
13425;SDS011;6785;57.918;12.530;2022-08-25T15:21:29;1.42;;;1.30;;
13425;SDS011;6785;57.918;12.530;2022-08-25T15:23:56;2.28;;;1.50;;
13425;SDS011;6785;57.918;12.530;2022-08-25T15:26:24;1.98;;;1.40;;
13425;SDS011;6785;57.918;12.530;2022-08-25T15:28:51;2.28;;;1.48;;
13425;SDS011;6785;57.918;12.530;2022-08-25T15:31:18;3.42;;;1.33;;
13425;SDS011;6785;57.918;12.530;2022-08-25T15:33:47;1.95;;;1.30;;
13425;SDS011;6785;57.918;12.530;2022-08-25T15:36:15;3.40;;;1.40;;
13425;SDS011;6785;57.918;12.530;2022-08-25T15:38:55;1.55;;;1.05;;
13425;SDS011;6785;57.918;12.530;2022-08-25T15:41:22;1.52;;;1.42;;
13425;SDS011;6785;57.918;12.530;2022-08-25T15:43:49;2.00;;;1.40;;
13425;SDS011;6785;57.918;12.530;2022-08-25T15:46:30;1.88;;;1.30;;
13425;SDS011;6785;57.918;12.530;2022-08-25T15:48:59;2.88;;;1.20;;
13425;SDS011;6785;57.918;12.530;2022-08-25T15:51:27;2.67;;;1.40;;
13425;SDS011;6785;57.918;12.530;2022-08-25T15:53:54;2.00;;;1.30;;
13425;SDS011;6785;57.918;12.530;2022-08-25T15:58:57;1.77;;;1.40;;
13425;SDS011;6785;57.918;12.530;2022-08-25T16:01:24;2.70;;;1.45;;
13425;SDS011;6785;57.918;12.530;2022-08-25T16:03:53;1.73;;;1.30;;
13425;SDS011;6785;57.918;12.530;2022-08-25T16:06:21;3.22;;;1.50;;
13425;SDS011;6785;57.918;12.530;2022-08-25T16:08:50;4.78;;;1.70;;
13425;SDS011;6785;57.918;12.530;2022-08-25T16:11:18;1.30;;;1.20;;
13425;SDS011;6785;57.918;12.530;2022-08-25T16:13:48;1.80;;;1.50;;
13425;SDS011;6785;57.918;12.530;2022-08-25T16:16:16;3.97;;;1.42;;